createdAt,value
2023-08-24T00:01:48.088Z,23.70
2023-08-24T00:04:17.397Z,23.70
2023-08-24T00:06:45.400Z,23.60
2023-08-24T00:09:13.285Z,23.60
2023-08-24T00:11:41.207Z,23.60
2023-08-24T00:14:09.088Z,23.60
2023-08-24T00:16:37.055Z,23.50
2023-08-24T00:19:05.061Z,23.50
2023-08-24T00:21:34.417Z,23.50
2023-08-24T00:24:02.400Z,23.40
2023-08-24T00:26:30.453Z,23.40
2023-08-24T00:28:58.345Z,23.40
2023-08-24T00:31:26.372Z,23.40
2023-08-24T00:33:54.437Z,23.30
2023-08-24T00:36:24.344Z,23.30
2023-08-24T00:38:54.312Z,23.30
2023-08-24T00:41:22.588Z,23.30
2023-08-24T00:43:51.367Z,23.30
2023-08-24T00:46:20.288Z,23.20
2023-08-24T00:48:48.945Z,23.20
2023-08-24T00:51:17.082Z,23.20
2023-08-24T00:53:45.108Z,23.20
2023-08-24T00:56:14.616Z,23.10
2023-08-24T00:58:42.775Z,23.10
2023-08-24T01:01:11.018Z,23.00
2023-08-24T01:03:39.113Z,23.00
2023-08-24T01:06:08.043Z,23.00
2023-08-24T01:08:36.118Z,23.00
2023-08-24T01:11:14.069Z,22.90
2023-08-24T01:13:58.944Z,22.90
2023-08-24T01:16:30.744Z,22.80
2023-08-24T01:19:01.977Z,22.80
2023-08-24T01:21:30.442Z,22.80
2023-08-24T01:24:13.109Z,22.80
2023-08-24T01:26:43.316Z,22.80
2023-08-24T01:29:12.606Z,22.80
2023-08-24T01:31:40.687Z,22.80
2023-08-24T01:34:08.600Z,22.70
2023-08-24T01:36:36.529Z,22.70
2023-08-24T01:39:24.150Z,22.70
2023-08-24T01:41:55.340Z,22.70
2023-08-24T01:44:26.814Z,22.70
2023-08-24T01:46:56.363Z,22.70
2023-08-24T01:49:26.842Z,22.70
2023-08-24T01:51:55.639Z,22.60
2023-08-24T01:54:23.665Z,22.60
2023-08-24T01:56:52.994Z,22.60
2023-08-24T01:59:21.003Z,22.60
2023-08-24T02:01:48.900Z,22.50
2023-08-24T02:04:16.866Z,22.50
2023-08-24T02:06:45.378Z,22.50
2023-08-24T02:09:13.313Z,22.50
2023-08-24T02:11:41.285Z,22.50
2023-08-24T02:14:10.513Z,22.40
2023-08-24T02:16:40.769Z,22.40
2023-08-24T02:19:08.755Z,22.40
2023-08-24T02:21:37.865Z,22.40
2023-08-24T02:24:06.641Z,22.40
2023-08-24T02:26:34.606Z,22.30
2023-08-24T02:29:03.114Z,22.30
2023-08-24T02:31:32.494Z,22.30
2023-08-24T02:34:00.547Z,22.30
2023-08-24T02:36:29.801Z,22.30
2023-08-24T02:38:58.059Z,22.30
2023-08-24T02:41:25.974Z,22.20
2023-08-24T02:43:53.999Z,22.20
2023-08-24T02:46:23.509Z,22.20
2023-08-24T02:48:52.852Z,22.20
2023-08-24T02:51:25.089Z,22.10
2023-08-24T02:53:53.049Z,22.00
2023-08-24T02:56:21.221Z,22.00
2023-08-24T02:58:49.210Z,22.10
2023-08-24T03:01:17.240Z,22.00
2023-08-24T03:03:45.452Z,22.00
2023-08-24T03:06:14.799Z,22.00
2023-08-24T03:08:42.950Z,22.00
2023-08-24T03:11:11.134Z,22.00
2023-08-24T03:13:39.961Z,22.00
2023-08-24T03:16:09.016Z,22.00
2023-08-24T03:18:37.363Z,22.00
2023-08-24T03:21:05.471Z,22.00
2023-08-24T03:23:34.733Z,22.00
2023-08-24T03:26:02.673Z,21.90
2023-08-24T03:28:30.898Z,21.90
2023-08-24T03:30:58.883Z,21.90
2023-08-24T03:33:27.595Z,21.90
2023-08-24T03:35:55.552Z,21.90
2023-08-24T03:38:23.737Z,21.90
2023-08-24T03:40:53.041Z,21.90
2023-08-24T03:43:20.952Z,21.80
2023-08-24T03:45:48.956Z,21.80
2023-08-24T03:48:17.466Z,21.80
2023-08-24T03:50:45.434Z,21.80
2023-08-24T03:53:14.051Z,21.70
2023-08-24T03:55:42.430Z,21.70
2023-08-24T03:58:12.050Z,21.80
2023-08-24T04:00:41.095Z,21.80
2023-08-24T04:03:09.211Z,21.80
2023-08-24T04:05:37.303Z,21.70
2023-08-24T04:08:05.968Z,21.80
2023-08-24T04:10:33.892Z,21.70
2023-08-24T04:13:01.880Z,21.70
2023-08-24T04:15:31.169Z,21.70
2023-08-24T04:17:59.234Z,21.70
2023-08-24T04:20:27.395Z,21.70
2023-08-24T04:22:56.420Z,21.70
2023-08-24T04:25:24.744Z,21.70
2023-08-24T04:27:52.894Z,21.70
2023-08-24T04:30:20.953Z,21.70
2023-08-24T04:32:50.253Z,21.70
2023-08-24T04:35:18.324Z,21.70
2023-08-24T04:37:46.263Z,21.70
2023-08-24T04:40:13.299Z,21.70
2023-08-24T04:42:41.180Z,21.70
2023-08-24T04:45:10.645Z,21.70
2023-08-24T04:47:38.628Z,21.70
2023-08-24T04:50:09.592Z,21.60
2023-08-24T04:52:37.359Z,21.60
2023-08-24T04:55:05.604Z,21.60
2023-08-24T04:57:33.620Z,21.60
2023-08-24T05:00:01.622Z,21.60
2023-08-24T05:02:29.713Z,21.60
2023-08-24T05:04:57.720Z,21.50
2023-08-24T05:07:27.008Z,21.50
2023-08-24T05:09:56.153Z,21.50
2023-08-24T05:12:24.106Z,21.50
2023-08-24T05:14:52.026Z,21.50
2023-08-24T05:17:21.181Z,21.50
2023-08-24T05:19:53.032Z,21.50
2023-08-24T05:22:21.003Z,21.50
2023-08-24T05:24:50.304Z,21.50
2023-08-24T05:27:18.248Z,21.50
2023-08-24T05:29:46.134Z,21.50
2023-08-24T05:32:14.139Z,21.50
2023-08-24T05:34:42.010Z,21.50
2023-08-24T05:37:09.922Z,21.50
2023-08-24T05:39:37.881Z,21.50
2023-08-24T05:42:07.678Z,21.50
2023-08-24T05:44:35.523Z,21.50
2023-08-24T05:47:03.572Z,21.50
2023-08-24T05:49:32.097Z,21.50
2023-08-24T05:52:00.134Z,21.50
2023-08-24T05:54:28.077Z,21.50
2023-08-24T05:56:56.123Z,21.40
2023-08-24T05:59:25.447Z,21.40
2023-08-24T06:01:53.498Z,21.30
2023-08-24T06:04:21.485Z,21.20
2023-08-24T06:06:49.509Z,21.20
2023-08-24T06:09:17.460Z,21.20
2023-08-24T06:11:45.524Z,21.20
2023-08-24T06:14:13.610Z,21.30
2023-08-24T06:16:43.010Z,21.30
2023-08-24T06:19:11.492Z,21.30
2023-08-24T06:21:39.400Z,21.30
2023-08-24T06:24:07.652Z,21.30
2023-08-24T06:26:35.652Z,21.30
2023-08-24T06:29:03.554Z,21.30
2023-08-24T06:31:32.440Z,21.30
2023-08-24T06:34:01.920Z,21.40
2023-08-24T06:36:30.803Z,21.40
2023-08-24T06:38:59.828Z,21.40
2023-08-24T06:41:27.870Z,21.50
2023-08-24T06:43:56.808Z,21.50
2023-08-24T06:46:24.898Z,21.60
2023-08-24T06:48:53.176Z,21.60
2023-08-24T06:51:22.569Z,21.50
2023-08-24T06:53:50.526Z,21.60
2023-08-24T06:56:19.347Z,21.60
2023-08-24T06:58:47.646Z,21.60
2023-08-24T07:01:15.682Z,21.70
2023-08-24T07:03:43.681Z,21.70
2023-08-24T07:06:13.267Z,21.70
2023-08-24T07:08:42.572Z,21.80
2023-08-24T07:11:10.598Z,21.80
2023-08-24T07:13:38.728Z,21.80
2023-08-24T07:16:06.678Z,21.80
2023-08-24T07:18:34.705Z,21.90
2023-08-24T07:21:02.671Z,21.90
2023-08-24T07:23:35.219Z,21.90
2023-08-24T07:26:04.904Z,22.00
2023-08-24T07:28:32.840Z,22.00
2023-08-24T07:31:01.568Z,22.00
2023-08-24T07:33:30.152Z,22.10
2023-08-24T07:35:58.884Z,22.10
2023-08-24T07:38:30.438Z,22.10
2023-08-24T07:40:58.480Z,22.20
2023-08-24T07:43:27.990Z,22.20
2023-08-24T07:45:56.183Z,22.20
2023-08-24T07:48:24.247Z,22.30
2023-08-24T07:50:52.456Z,22.30
2023-08-24T07:53:20.787Z,22.30
2023-08-24T07:55:49.067Z,22.30
2023-08-24T07:58:16.959Z,22.40
2023-08-24T08:00:46.260Z,22.40
2023-08-24T08:03:14.203Z,22.40
2023-08-24T08:05:42.223Z,22.50
2023-08-24T08:08:10.565Z,22.50
2023-08-24T08:10:38.480Z,22.50
2023-08-24T08:13:06.427Z,22.60
2023-08-24T08:15:34.374Z,22.70
2023-08-24T08:18:03.890Z,22.80
2023-08-24T08:20:32.032Z,22.80
2023-08-24T08:23:00.798Z,22.80
2023-08-24T08:25:29.345Z,22.90
2023-08-24T08:27:57.300Z,23.00
2023-08-24T08:30:25.288Z,23.10
2023-08-24T08:32:53.440Z,23.20
2023-08-24T08:35:24.703Z,23.20
2023-08-24T08:37:54.883Z,23.30
2023-08-24T08:40:23.106Z,23.30
2023-08-24T08:42:51.173Z,23.50
2023-08-24T08:45:23.002Z,23.50
2023-08-24T08:47:51.736Z,23.60
2023-08-24T08:50:20.190Z,23.60
2023-08-24T08:52:49.703Z,23.70
2023-08-24T08:55:17.986Z,23.80
2023-08-24T08:57:46.189Z,23.80
2023-08-24T09:00:15.353Z,23.80
2023-08-24T09:02:46.205Z,23.90
2023-08-24T09:05:14.235Z,24.00
2023-08-24T09:07:42.807Z,24.10
2023-08-24T09:10:12.139Z,24.10
2023-08-24T09:12:40.066Z,24.20
2023-08-24T09:15:09.376Z,24.30
2023-08-24T09:17:37.542Z,24.30
2023-08-24T09:20:10.947Z,24.40
2023-08-24T09:22:40.926Z,24.50
2023-08-24T09:25:11.242Z,24.50
2023-08-24T09:27:40.594Z,24.60
2023-08-24T09:30:09.784Z,24.70
2023-08-24T09:32:37.780Z,24.80
2023-08-24T09:35:09.479Z,24.80
2023-08-24T09:37:38.498Z,24.90
2023-08-24T09:40:09.301Z,25.00
2023-08-24T09:42:42.852Z,25.10
2023-08-24T09:45:13.974Z,25.20
2023-08-24T09:47:46.814Z,25.30
2023-08-24T09:50:15.363Z,25.40
2023-08-24T09:52:45.339Z,25.50
2023-08-24T09:55:17.320Z,25.50
2023-08-24T09:57:48.362Z,25.60
2023-08-24T10:00:18.304Z,25.70
2023-08-24T10:02:52.739Z,25.80
2023-08-24T10:07:57.573Z,26.00
2023-08-24T10:10:28.517Z,26.10
2023-08-24T10:13:02.873Z,26.10
2023-08-24T10:15:31.508Z,26.10
2023-08-24T10:18:01.066Z,26.30
2023-08-24T10:20:29.744Z,26.40
2023-08-24T10:23:04.045Z,26.50
2023-08-24T10:25:34.234Z,26.50
2023-08-24T10:28:05.112Z,26.60
2023-08-24T10:30:33.698Z,26.60
2023-08-24T10:33:02.618Z,26.70
2023-08-24T10:35:31.082Z,26.70
2023-08-24T10:38:01.051Z,26.80
2023-08-24T10:40:35.771Z,26.90
2023-08-24T10:43:08.582Z,27.00
2023-08-24T10:45:59.308Z,27.00
2023-08-24T10:48:28.785Z,27.10
2023-08-24T10:51:20.901Z,27.20
2023-08-24T10:53:53.008Z,27.30
2023-08-24T10:56:21.761Z,27.40
2023-08-24T10:59:15.109Z,27.40
2023-08-24T11:01:44.287Z,27.50
2023-08-24T11:04:13.926Z,27.50
2023-08-24T11:06:55.643Z,27.60
2023-08-24T11:09:24.869Z,27.70
2023-08-24T11:12:00.570Z,27.80
2023-08-24T11:14:31.381Z,27.80
2023-08-24T11:17:01.291Z,27.90
2023-08-24T11:19:31.353Z,28.10
2023-08-24T11:22:00.490Z,28.20
2023-08-24T11:24:29.512Z,28.20
2023-08-24T11:26:57.629Z,28.40
2023-08-24T11:29:27.288Z,28.50
2023-08-24T11:31:56.658Z,28.50
2023-08-24T11:34:24.846Z,28.60
2023-08-24T11:36:52.850Z,28.70
2023-08-24T11:39:22.236Z,28.80
2023-08-24T11:42:00.672Z,28.90
2023-08-24T11:44:29.748Z,29.00
2023-08-24T11:47:00.921Z,29.00
2023-08-24T11:49:29.263Z,29.10
2023-08-24T11:51:57.698Z,29.20
2023-08-24T11:54:25.987Z,29.30
2023-08-24T11:56:54.042Z,29.40
2023-08-24T11:59:22.704Z,29.50
2023-08-24T12:01:51.137Z,29.60
2023-08-24T12:04:20.480Z,29.70
2023-08-24T12:06:48.587Z,29.70
2023-08-24T12:09:17.237Z,29.80
2023-08-24T12:11:45.209Z,29.80
2023-08-24T12:14:19.394Z,29.80
2023-08-24T12:16:50.840Z,29.90
2023-08-24T12:19:24.637Z,30.00
2023-08-24T12:21:52.778Z,30.00
2023-08-24T12:24:23.592Z,30.00
2023-08-24T12:26:57.906Z,30.10
2023-08-24T12:29:26.140Z,30.20
2023-08-24T12:31:58.178Z,30.20
2023-08-24T12:34:28.371Z,30.30
2023-08-24T12:36:56.423Z,30.40
2023-08-24T12:39:24.357Z,30.40
2023-08-24T12:41:52.275Z,30.40
2023-08-24T12:44:20.177Z,30.50
2023-08-24T12:46:48.132Z,30.50
2023-08-24T12:49:16.401Z,30.60
2023-08-24T12:51:45.704Z,30.60
2023-08-24T12:54:14.736Z,30.60
2023-08-24T12:56:42.781Z,30.70
2023-08-24T12:59:11.156Z,30.70
2023-08-24T13:01:39.156Z,30.80
2023-08-24T13:04:07.563Z,30.80
2023-08-24T13:06:36.165Z,30.80
2023-08-24T13:09:06.302Z,30.90
2023-08-24T13:11:34.809Z,31.00
2023-08-24T13:14:02.776Z,31.00
2023-08-24T13:16:30.943Z,31.10
2023-08-24T13:18:59.101Z,31.30
2023-08-24T13:21:27.807Z,31.40
2023-08-24T13:23:55.744Z,31.50
2023-08-24T13:26:25.424Z,31.60
2023-08-24T13:28:53.855Z,31.70
2023-08-24T13:31:21.841Z,31.70
2023-08-24T13:33:49.772Z,31.70
2023-08-24T13:36:17.840Z,31.90
2023-08-24T13:38:46.702Z,31.90
2023-08-24T13:41:14.773Z,32.00
2023-08-24T13:43:44.161Z,32.00
2023-08-24T13:46:12.373Z,32.00
2023-08-24T13:48:40.469Z,32.00
2023-08-24T13:51:09.337Z,32.00
2023-08-24T13:53:37.527Z,32.00
2023-08-24T13:56:05.849Z,31.90
2023-08-24T13:58:34.200Z,31.90
2023-08-24T14:01:04.806Z,31.90
2023-08-24T14:03:32.878Z,31.90
2023-08-24T14:06:00.955Z,31.90
2023-08-24T14:08:29.336Z,31.80
2023-08-24T14:10:57.239Z,31.80
2023-08-24T14:13:26.218Z,31.70
2023-08-24T14:15:54.311Z,31.70
2023-08-24T14:18:23.753Z,31.70
2023-08-24T14:20:52.790Z,31.50
2023-08-24T14:23:20.992Z,31.40
2023-08-24T14:25:50.242Z,31.40
2023-08-24T14:28:24.154Z,31.40
2023-08-24T14:30:52.292Z,31.30
2023-08-24T14:33:20.455Z,31.30
2023-08-24T14:35:55.982Z,31.10
2023-08-24T14:38:24.009Z,31.00
2023-08-24T14:40:51.996Z,30.90
2023-08-24T14:43:19.981Z,30.70
2023-08-24T14:45:48.045Z,30.20
2023-08-24T14:48:16.487Z,29.60
2023-08-24T14:50:44.729Z,29.10
2023-08-24T14:53:14.106Z,29.00
2023-08-24T14:55:42.002Z,28.80
2023-08-24T14:58:10.116Z,28.80
2023-08-24T15:00:38.179Z,28.60
2023-08-24T15:03:06.630Z,28.50
2023-08-24T15:05:40.730Z,28.50
2023-08-24T15:08:08.717Z,28.50
2023-08-24T15:10:38.025Z,28.40
2023-08-24T15:13:06.337Z,28.40
2023-08-24T15:15:36.856Z,28.30
2023-08-24T15:18:05.376Z,28.30
2023-08-24T15:20:33.593Z,28.30
2023-08-24T15:23:01.844Z,28.20
2023-08-24T15:25:29.762Z,28.20
2023-08-24T15:27:59.061Z,28.20
2023-08-24T15:30:27.030Z,28.10
2023-08-24T15:32:55.018Z,28.00
2023-08-24T15:35:22.941Z,28.00
2023-08-24T15:37:51.004Z,28.00
2023-08-24T15:40:19.443Z,27.90
2023-08-24T15:42:48.036Z,27.90
2023-08-24T15:45:17.588Z,27.90
2023-08-24T15:47:45.570Z,27.90
2023-08-24T15:50:13.775Z,27.90
2023-08-24T15:52:41.719Z,27.90
2023-08-24T15:55:10.235Z,27.90
2023-08-24T15:57:38.677Z,27.90
2023-08-24T16:00:11.341Z,27.90
2023-08-24T16:02:41.730Z,27.90
2023-08-24T16:05:10.225Z,27.80
2023-08-24T16:07:38.196Z,27.80
2023-08-24T16:10:07.993Z,27.80
2023-08-24T16:12:36.053Z,27.70
2023-08-24T16:15:04.824Z,27.70
2023-08-24T16:17:33.061Z,27.70
2023-08-24T16:20:06.184Z,27.80
2023-08-24T16:22:34.300Z,27.70
2023-08-24T16:25:02.316Z,27.70
2023-08-24T16:27:30.306Z,27.70
2023-08-24T16:29:59.542Z,27.70
2023-08-24T16:32:27.504Z,27.70
2023-08-24T16:34:55.514Z,27.70
2023-08-24T16:37:24.806Z,27.70
2023-08-24T16:39:52.783Z,27.60
2023-08-24T16:42:20.981Z,27.60
2023-08-24T16:44:48.988Z,27.60
2023-08-24T16:47:17.137Z,27.60
2023-08-24T16:49:45.282Z,27.40
2023-08-24T16:52:13.248Z,27.20
2023-08-24T16:54:42.588Z,27.10
2023-08-24T16:57:10.572Z,27.00
2023-08-24T16:59:38.954Z,26.90
2023-08-24T17:02:07.201Z,26.90
2023-08-24T17:04:35.187Z,26.80
2023-08-24T17:07:03.433Z,26.80
2023-08-24T17:09:31.376Z,26.70
2023-08-24T17:12:00.744Z,26.70
2023-08-24T17:14:28.666Z,26.70
2023-08-24T17:16:56.661Z,26.70
2023-08-24T17:19:24.597Z,26.70
2023-08-24T17:21:52.501Z,26.60
2023-08-24T17:24:20.807Z,26.60
2023-08-24T17:26:48.718Z,26.60
2023-08-24T17:29:18.152Z,26.50
2023-08-24T17:31:46.069Z,26.50
2023-08-24T17:34:14.689Z,26.40
2023-08-24T17:36:42.894Z,26.20
2023-08-24T17:39:12.450Z,26.10
2023-08-24T17:41:43.433Z,26.00
2023-08-24T17:44:11.393Z,25.90
2023-08-24T17:46:41.016Z,25.90
2023-08-24T17:49:08.951Z,25.80
2023-08-24T17:51:36.903Z,25.70
2023-08-24T17:54:05.220Z,25.70
2023-08-24T17:56:33.158Z,25.60
2023-08-24T17:59:01.342Z,25.60
2023-08-24T18:01:29.446Z,25.50
2023-08-24T18:03:58.820Z,25.50
2023-08-24T18:06:27.301Z,25.40
2023-08-24T18:08:55.793Z,25.40
2023-08-24T18:11:23.985Z,25.40
2023-08-24T18:13:53.001Z,25.50
2023-08-24T18:16:22.240Z,25.50
2023-08-24T18:18:50.157Z,25.60
2023-08-24T18:21:19.458Z,25.60
2023-08-24T18:23:47.414Z,25.70
2023-08-24T18:26:15.384Z,25.60
2023-08-24T18:28:43.339Z,25.60
2023-08-24T18:31:11.741Z,25.50
2023-08-24T18:33:39.680Z,25.50
2023-08-24T18:36:07.731Z,25.50
2023-08-24T18:38:36.977Z,25.50
2023-08-24T18:41:05.012Z,25.50
2023-08-24T18:43:32.900Z,25.40
2023-08-24T18:46:03.526Z,25.40
2023-08-24T18:48:31.800Z,25.40
2023-08-24T18:51:00.685Z,25.40
2023-08-24T18:53:28.630Z,25.40
2023-08-24T18:55:58.990Z,25.40
2023-08-24T18:58:27.756Z,25.40
2023-08-24T19:01:00.753Z,25.40
2023-08-24T19:03:29.131Z,25.40
2023-08-24T19:05:58.668Z,25.40
2023-08-24T19:08:28.548Z,25.40
2023-08-24T19:10:57.803Z,25.30
2023-08-24T19:13:28.114Z,25.30
2023-08-24T19:16:00.899Z,25.30
2023-08-24T19:18:29.351Z,25.30
2023-08-24T19:20:57.321Z,25.20
2023-08-24T19:23:25.213Z,25.20
2023-08-24T19:25:53.134Z,25.20
2023-08-24T19:28:22.960Z,25.20
2023-08-24T19:30:51.042Z,25.20
2023-08-24T19:33:19.051Z,25.10
2023-08-24T19:35:47.742Z,25.10
2023-08-24T19:38:15.806Z,25.10
2023-08-24T19:40:43.827Z,25.10
2023-08-24T19:43:11.944Z,25.10
2023-08-24T19:45:41.309Z,25.00
2023-08-24T19:48:09.707Z,25.00
2023-08-24T19:50:37.675Z,25.00
2023-08-24T19:53:08.489Z,25.00
2023-08-24T19:55:36.207Z,25.00
2023-08-24T19:58:04.600Z,24.90
2023-08-24T20:00:33.828Z,24.90
2023-08-24T20:03:05.954Z,24.90
2023-08-24T20:05:36.007Z,24.90
2023-08-24T20:08:04.562Z,24.80
2023-08-24T20:10:32.593Z,24.80
2023-08-24T20:13:00.529Z,24.80
2023-08-24T20:15:28.446Z,24.80
2023-08-24T20:17:56.673Z,24.70
2023-08-24T20:20:26.703Z,24.70
2023-08-24T20:22:56.721Z,24.70
2023-08-24T20:25:24.868Z,24.60
2023-08-24T20:27:53.241Z,24.60
2023-08-24T20:30:21.329Z,24.60
2023-08-24T20:32:49.337Z,24.60
2023-08-24T20:35:17.452Z,24.50
2023-08-24T20:37:46.793Z,24.50
2023-08-24T20:40:14.724Z,24.50
2023-08-24T20:42:42.711Z,24.50
2023-08-24T20:45:11.294Z,24.50
2023-08-24T20:47:39.790Z,24.50
2023-08-24T20:50:10.483Z,24.40
2023-08-24T20:52:38.426Z,24.40
2023-08-24T20:55:08.260Z,24.40
2023-08-24T20:57:36.181Z,24.30
2023-08-24T21:00:06.909Z,24.30
2023-08-24T21:02:35.086Z,24.30
2023-08-24T21:05:04.943Z,24.30
2023-08-24T21:07:32.943Z,24.30
2023-08-24T21:10:01.019Z,24.30
2023-08-24T21:12:30.434Z,24.20
2023-08-24T21:14:58.382Z,24.20
2023-08-24T21:17:27.274Z,24.20
2023-08-24T21:19:55.336Z,24.20
2023-08-24T21:22:23.250Z,24.10
2023-08-24T21:24:51.221Z,24.10
2023-08-24T21:27:19.211Z,24.10
2023-08-24T21:29:50.760Z,24.10
2023-08-24T21:32:18.698Z,24.00
2023-08-24T21:34:46.706Z,24.00
2023-08-24T21:37:14.883Z,24.00
2023-08-24T21:39:42.925Z,24.00
2023-08-24T21:42:10.896Z,24.00
2023-08-24T21:44:38.801Z,23.90
2023-08-24T21:47:08.241Z,23.90
2023-08-24T21:49:36.165Z,23.90
2023-08-24T21:52:04.240Z,23.90
2023-08-24T21:54:32.195Z,23.80
2023-08-24T21:57:00.138Z,23.80
2023-08-24T21:59:28.050Z,23.80
2023-08-24T22:01:56.108Z,23.80
2023-08-24T22:04:25.490Z,23.80
2023-08-24T22:06:53.708Z,23.80
2023-08-24T22:09:21.687Z,23.70
2023-08-24T22:11:49.574Z,23.70
2023-08-24T22:14:17.537Z,23.70
2023-08-24T22:16:45.443Z,23.70
2023-08-24T22:19:26.174Z,23.70
2023-08-24T22:21:56.753Z,23.70
2023-08-24T22:24:24.852Z,23.60
2023-08-24T22:26:52.770Z,23.60
2023-08-24T22:29:20.829Z,23.60
2023-08-24T22:31:48.893Z,23.50
2023-08-24T22:34:16.844Z,23.50
2023-08-24T22:36:44.762Z,23.50
2023-08-24T22:39:14.146Z,23.50
2023-08-24T22:41:42.025Z,23.50
2023-08-24T22:44:09.935Z,23.50
2023-08-24T22:46:37.917Z,23.50
2023-08-24T22:49:06.811Z,23.50
2023-08-24T22:51:35.529Z,23.40
2023-08-24T22:54:04.357Z,23.40
2023-08-24T22:56:34.021Z,23.40
2023-08-24T22:59:01.968Z,23.40
2023-08-24T23:01:30.037Z,23.40
2023-08-24T23:03:58.052Z,23.30
2023-08-24T23:06:45.514Z,23.30
2023-08-24T23:09:15.968Z,23.30
2023-08-24T23:11:45.454Z,23.30
2023-08-24T23:14:13.431Z,23.30
2023-08-24T23:16:41.453Z,23.20
2023-08-24T23:19:11.088Z,23.20
2023-08-24T23:21:40.085Z,23.20
2023-08-24T23:24:35.506Z,23.20
2023-08-24T23:26:58.257Z,23.20
2023-08-24T23:29:26.252Z,23.20
2023-08-24T23:31:54.389Z,23.20
2023-08-24T23:34:22.362Z,23.20
2023-08-24T23:36:50.418Z,23.10
2023-08-24T23:39:18.389Z,23.10
2023-08-24T23:41:46.338Z,23.10
2023-08-24T23:44:15.684Z,23.10
2023-08-24T23:46:43.664Z,23.10
2023-08-24T23:49:11.673Z,23.10
2023-08-24T23:51:39.664Z,23.00
2023-08-24T23:54:07.833Z,23.00
2023-08-24T23:56:35.749Z,23.00
2023-08-24T23:59:03.728Z,23.00
